Airfield :
LOGIN :

Register | Disclaimer

   EN    FR    IT 

 










Legend :    VFR   Marginal VFR   IFR   Intensive IFR   Very Intensive IFR
Visi :
Ceiling :
>= 8 km
>= 3000ft
5 to 8 km
1000 to 3000 ft
1500m to 5 km
500 to 1000 ft
800 to 1500m
200 to 500 ft
< 800m
< 200 ft
Symbols :   Thunderstorms  Fog  Heavy snow  Heavy precipitations  Wind > 20 kt
SIGMETs :     Misc.  Thunderstorms  Icing  Turbulence  Mountain Waves  Volcanic Ashes







- Airport Elevation : 197 ft
- IATA code : XOG
- Download approach charts


LFMO - Orange

CURRENT METAR :
  • 200430Z AUTO 00000KT CAVOK 19/14 Q1013 NOSIG

EXPIRED METARs :
  • 200400Z AUTO 04003KT CAVOK 19/15 Q1013 NOSIG
  • 200330Z AUTO 03002KT CAVOK 19/15 Q1013 NOSIG
  • 200300Z AUTO 02002KT CAVOK 18/15 Q1013 NOSIG
  • 200230Z AUTO 00000KT CAVOK 19/15 Q1013 NOSIG
  • 200200Z AUTO 00000KT CAVOK 19/15 Q1013 NOSIG

TAF AMD TAF LFMO
Valid from the 20 at 04:00 until the 21 at 03:00 UTC


200458Z 2004/2103 VRB02KT CAVOK
TEMPO 2008/2011 4000 SHRA SCT060TCU
PROB40
TEMPO 2008/2011 2000 TSRA BKN050CB
BECMG 2014/2015 19015KT
TEMPO 2015/2021 4000 SHRA SCT060TCU
PROB40
TEMPO 2015/2018 3000 TSRA SCT050CB
BECMG 2019/2021 35015KT
TEMPO 2021/2103 2000 TSRA BKN040CB BKN060
No reported NOTAMs for that airfield.



MET'MAP, your aeronautical weather chart ! - Copyright ORBIFLY December 2007 - Disclaimer

ORBIFLY MET'MAP TEAM :

Programming & Development : Alexandra Zaïnal
Concept & Development : Baudouin d'Aumeries
Co-Development & Prog : Marc-Olivier Méhu
Technical & hardware support : Manuel Goepfert

Contact : metmap@orbifly.com




SOURCES & CREDITS :

   NOAA